sensor_id;sensor_type;location;lat;lon;timestamp;P1;durP1;ratioP1;P2;durP2;ratioP2
9334;SDS011;4706;41.844;26.082;2023-06-10T00:00:36;13.05;;;3.80;;
9334;SDS011;4706;41.844;26.082;2023-06-10T00:03:01;7.72;;;4.10;;
9334;SDS011;4706;41.844;26.082;2023-06-10T00:05:27;9.60;;;4.07;;
9334;SDS011;4706;41.844;26.082;2023-06-10T00:07:55;9.30;;;4.38;;
9334;SDS011;4706;41.844;26.082;2023-06-10T00:10:21;5.35;;;3.95;;
9334;SDS011;4706;41.844;26.082;2023-06-10T00:12:47;14.55;;;4.25;;
9334;SDS011;4706;41.844;26.082;2023-06-10T00:15:12;8.95;;;3.83;;
9334;SDS011;4706;41.844;26.082;2023-06-10T00:17:38;5.88;;;3.78;;
9334;SDS011;4706;41.844;26.082;2023-06-10T00:20:04;6.20;;;4.05;;
9334;SDS011;4706;41.844;26.082;2023-06-10T00:22:34;6.22;;;3.88;;
9334;SDS011;4706;41.844;26.082;2023-06-10T00:25:00;5.47;;;3.60;;
9334;SDS011;4706;41.844;26.082;2023-06-10T00:27:25;5.85;;;3.90;;
9334;SDS011;4706;41.844;26.082;2023-06-10T00:29:56;4.53;;;3.78;;
9334;SDS011;4706;41.844;26.082;2023-06-10T00:32:21;4.82;;;3.72;;
9334;SDS011;4706;41.844;26.082;2023-06-10T00:34:47;5.72;;;3.83;;
9334;SDS011;4706;41.844;26.082;2023-06-10T00:37:12;4.72;;;3.90;;
9334;SDS011;4706;41.844;26.082;2023-06-10T00:39:38;5.82;;;3.90;;
9334;SDS011;4706;41.844;26.082;2023-06-10T00:42:04;9.88;;;4.03;;
9334;SDS011;4706;41.844;26.082;2023-06-10T00:44:32;7.00;;;4.32;;
9334;SDS011;4706;41.844;26.082;2023-06-10T00:46:57;7.47;;;4.40;;
9334;SDS011;4706;41.844;26.082;2023-06-10T00:49:23;5.43;;;4.10;;
9334;SDS011;4706;41.844;26.082;2023-06-10T00:51:50;6.38;;;4.28;;
9334;SDS011;4706;41.844;26.082;2023-06-10T00:54:17;6.57;;;4.32;;
9334;SDS011;4706;41.844;26.082;2023-06-10T00:56:43;6.57;;;4.35;;
9334;SDS011;4706;41.844;26.082;2023-06-10T00:59:08;4.53;;;4.07;;
9334;SDS011;4706;41.844;26.082;2023-06-10T01:01:34;5.50;;;4.13;;
9334;SDS011;4706;41.844;26.082;2023-06-10T01:04:02;4.47;;;3.78;;
9334;SDS011;4706;41.844;26.082;2023-06-10T01:12:21;4.40;;;4.00;;
9334;SDS011;4706;41.844;26.082;2023-06-10T01:15:12;5.53;;;4.35;;
9334;SDS011;4706;41.844;26.082;2023-06-10T01:20:30;5.47;;;3.35;;
9334;SDS011;4706;41.844;26.082;2023-06-10T01:22:57;4.75;;;4.07;;
9334;SDS011;4706;41.844;26.082;2023-06-10T01:25:28;6.63;;;3.95;;
9334;SDS011;4706;41.844;26.082;2023-06-10T01:33:43;9.57;;;4.70;;
9334;SDS011;4706;41.844;26.082;2023-06-10T01:36:12;7.28;;;4.05;;
9334;SDS011;4706;41.844;26.082;2023-06-10T01:38:42;38.03;;;7.57;;
9334;SDS011;4706;41.844;26.082;2023-06-10T01:41:10;5.53;;;3.90;;
9334;SDS011;4706;41.844;26.082;2023-06-10T01:43:37;75.22;;;30.52;;
9334;SDS011;4706;41.844;26.082;2023-06-10T01:46:04;189.07;;;52.20;;
9334;SDS011;4706;41.844;26.082;2023-06-10T01:48:29;103.03;;;29.90;;
9334;SDS011;4706;41.844;26.082;2023-06-10T01:50:55;145.50;;;46.65;;
9334;SDS011;4706;41.844;26.082;2023-06-10T01:53:21;101.57;;;33.58;;
9334;SDS011;4706;41.844;26.082;2023-06-10T01:55:47;14.32;;;4.88;;
9334;SDS011;4706;41.844;26.082;2023-06-10T01:58:13;20.02;;;4.43;;
9334;SDS011;4706;41.844;26.082;2023-06-10T02:00:38;10.77;;;5.35;;
9334;SDS011;4706;41.844;26.082;2023-06-10T02:03:04;12.57;;;5.22;;
9334;SDS011;4706;41.844;26.082;2023-06-10T02:05:29;9.43;;;5.25;;
9334;SDS011;4706;41.844;26.082;2023-06-10T02:07:55;11.23;;;4.78;;
9334;SDS011;4706;41.844;26.082;2023-06-10T02:10:20;8.48;;;4.85;;
9334;SDS011;4706;41.844;26.082;2023-06-10T02:12:46;6.38;;;4.45;;
9334;SDS011;4706;41.844;26.082;2023-06-10T02:15:11;9.40;;;4.57;;
9334;SDS011;4706;41.844;26.082;2023-06-10T02:17:37;5.18;;;4.60;;
9334;SDS011;4706;41.844;26.082;2023-06-10T02:20:03;5.88;;;4.20;;
9334;SDS011;4706;41.844;26.082;2023-06-10T02:22:32;5.93;;;4.20;;
9334;SDS011;4706;41.844;26.082;2023-06-10T02:24:58;4.97;;;4.38;;
9334;SDS011;4706;41.844;26.082;2023-06-10T02:27:23;6.13;;;4.22;;
9334;SDS011;4706;41.844;26.082;2023-06-10T02:29:49;6.55;;;4.68;;
9334;SDS011;4706;41.844;26.082;2023-06-10T02:32:15;7.63;;;4.15;;
9334;SDS011;4706;41.844;26.082;2023-06-10T02:34:41;9.95;;;4.65;;
9334;SDS011;4706;41.844;26.082;2023-06-10T02:37:08;8.77;;;4.70;;
9334;SDS011;4706;41.844;26.082;2023-06-10T02:39:34;11.25;;;5.13;;
9334;SDS011;4706;41.844;26.082;2023-06-10T02:41:59;7.30;;;3.97;;
9334;SDS011;4706;41.844;26.082;2023-06-10T02:44:25;6.78;;;4.63;;
9334;SDS011;4706;41.844;26.082;2023-06-10T02:46:51;19.27;;;6.47;;
9334;SDS011;4706;41.844;26.082;2023-06-10T02:49:16;7.93;;;4.50;;
9334;SDS011;4706;41.844;26.082;2023-06-10T02:51:42;4.85;;;4.35;;
9334;SDS011;4706;41.844;26.082;2023-06-10T02:54:07;5.97;;;4.35;;
9334;SDS011;4706;41.844;26.082;2023-06-10T02:56:33;10.43;;;4.60;;
9334;SDS011;4706;41.844;26.082;2023-06-10T02:58:59;6.70;;;4.68;;
9334;SDS011;4706;41.844;26.082;2023-06-10T03:01:25;8.90;;;4.60;;
9334;SDS011;4706;41.844;26.082;2023-06-10T03:03:51;8.77;;;5.03;;
9334;SDS011;4706;41.844;26.082;2023-06-10T03:06:17;4.47;;;4.07;;
9334;SDS011;4706;41.844;26.082;2023-06-10T03:08:43;5.85;;;4.50;;
9334;SDS011;4706;41.844;26.082;2023-06-10T03:11:10;5.78;;;5.07;;
9334;SDS011;4706;41.844;26.082;2023-06-10T03:13:38;19.67;;;14.63;;
9334;SDS011;4706;41.844;26.082;2023-06-10T03:16:03;7.88;;;5.30;;
9334;SDS011;4706;41.844;26.082;2023-06-10T03:18:29;30.30;;;21.85;;
9334;SDS011;4706;41.844;26.082;2023-06-10T03:20:55;6.53;;;4.82;;
9334;SDS011;4706;41.844;26.082;2023-06-10T03:23:22;6.65;;;5.20;;
9334;SDS011;4706;41.844;26.082;2023-06-10T03:25:48;6.75;;;4.60;;
9334;SDS011;4706;41.844;26.082;2023-06-10T03:28:14;9.77;;;6.25;;
9334;SDS011;4706;41.844;26.082;2023-06-10T03:30:39;15.40;;;11.50;;
9334;SDS011;4706;41.844;26.082;2023-06-10T03:33:05;23.30;;;14.32;;
9334;SDS011;4706;41.844;26.082;2023-06-10T03:35:31;16.30;;;10.77;;
9334;SDS011;4706;41.844;26.082;2023-06-10T03:37:57;58.25;;;37.25;;
9334;SDS011;4706;41.844;26.082;2023-06-10T03:40:24;38.33;;;27.10;;
9334;SDS011;4706;41.844;26.082;2023-06-10T03:42:49;27.48;;;18.02;;
9334;SDS011;4706;41.844;26.082;2023-06-10T03:45:15;18.90;;;12.88;;
9334;SDS011;4706;41.844;26.082;2023-06-10T03:47:41;39.20;;;25.25;;
9334;SDS011;4706;41.844;26.082;2023-06-10T03:50:08;21.55;;;15.55;;
9334;SDS011;4706;41.844;26.082;2023-06-10T03:52:35;18.48;;;13.80;;
9334;SDS011;4706;41.844;26.082;2023-06-10T03:55:01;15.60;;;10.25;;
9334;SDS011;4706;41.844;26.082;2023-06-10T03:57:26;17.73;;;12.75;;
9334;SDS011;4706;41.844;26.082;2023-06-10T03:59:52;10.38;;;6.68;;
9334;SDS011;4706;41.844;26.082;2023-06-10T04:02:17;17.20;;;11.68;;
9334;SDS011;4706;41.844;26.082;2023-06-10T04:04:43;22.65;;;17.50;;
9334;SDS011;4706;41.844;26.082;2023-06-10T04:07:08;17.95;;;10.85;;
9334;SDS011;4706;41.844;26.082;2023-06-10T04:09:34;7.28;;;6.47;;
9334;SDS011;4706;41.844;26.082;2023-06-10T04:12:01;8.73;;;5.32;;
9334;SDS011;4706;41.844;26.082;2023-06-10T04:14:27;11.32;;;5.90;;
9334;SDS011;4706;41.844;26.082;2023-06-10T04:16:53;8.85;;;5.70;;
9334;SDS011;4706;41.844;26.082;2023-06-10T04:19:18;5.97;;;4.95;;
9334;SDS011;4706;41.844;26.082;2023-06-10T04:21:45;14.75;;;11.23;;
9334;SDS011;4706;41.844;26.082;2023-06-10T04:24:11;20.02;;;14.82;;
9334;SDS011;4706;41.844;26.082;2023-06-10T04:26:37;14.18;;;9.98;;
9334;SDS011;4706;41.844;26.082;2023-06-10T04:29:03;11.63;;;6.80;;
9334;SDS011;4706;41.844;26.082;2023-06-10T04:31:29;8.73;;;4.88;;
9334;SDS011;4706;41.844;26.082;2023-06-10T04:33:54;11.13;;;7.60;;
9334;SDS011;4706;41.844;26.082;2023-06-10T04:36:20;21.42;;;14.38;;
9334;SDS011;4706;41.844;26.082;2023-06-10T04:38:45;12.90;;;9.57;;
9334;SDS011;4706;41.844;26.082;2023-06-10T04:41:11;12.57;;;7.57;;
9334;SDS011;4706;41.844;26.082;2023-06-10T04:43:38;8.02;;;6.53;;
9334;SDS011;4706;41.844;26.082;2023-06-10T04:46:03;18.75;;;11.80;;
9334;SDS011;4706;41.844;26.082;2023-06-10T04:48:29;11.32;;;6.53;;
9334;SDS011;4706;41.844;26.082;2023-06-10T04:50:55;14.05;;;9.60;;
9334;SDS011;4706;41.844;26.082;2023-06-10T04:53:21;25.27;;;15.52;;
9334;SDS011;4706;41.844;26.082;2023-06-10T04:55:47;44.75;;;24.52;;
9334;SDS011;4706;41.844;26.082;2023-06-10T04:58:13;42.38;;;21.73;;
9334;SDS011;4706;41.844;26.082;2023-06-10T05:00:39;31.33;;;18.33;;
9334;SDS011;4706;41.844;26.082;2023-06-10T05:03:05;47.75;;;24.83;;
9334;SDS011;4706;41.844;26.082;2023-06-10T05:05:30;33.10;;;16.80;;
9334;SDS011;4706;41.844;26.082;2023-06-10T05:07:56;22.92;;;14.45;;
9334;SDS011;4706;41.844;26.082;2023-06-10T05:10:22;11.13;;;8.40;;
9334;SDS011;4706;41.844;26.082;2023-06-10T05:12:47;8.25;;;6.40;;
9334;SDS011;4706;41.844;26.082;2023-06-10T05:15:13;6.45;;;5.80;;
9334;SDS011;4706;41.844;26.082;2023-06-10T05:17:38;7.15;;;6.28;;
9334;SDS011;4706;41.844;26.082;2023-06-10T05:20:04;7.90;;;5.82;;
9334;SDS011;4706;41.844;26.082;2023-06-10T05:22:30;5.80;;;5.25;;
9334;SDS011;4706;41.844;26.082;2023-06-10T05:24:55;9.27;;;5.78;;
9334;SDS011;4706;41.844;26.082;2023-06-10T05:27:21;26.70;;;24.80;;
9334;SDS011;4706;41.844;26.082;2023-06-10T05:29:47;8.98;;;6.07;;
9334;SDS011;4706;41.844;26.082;2023-06-10T05:32:13;8.15;;;6.32;;
9334;SDS011;4706;41.844;26.082;2023-06-10T05:34:38;7.00;;;5.72;;
9334;SDS011;4706;41.844;26.082;2023-06-10T05:37:04;6.78;;;5.72;;
9334;SDS011;4706;41.844;26.082;2023-06-10T05:39:30;13.00;;;5.68;;
9334;SDS011;4706;41.844;26.082;2023-06-10T05:41:55;8.40;;;5.70;;
9334;SDS011;4706;41.844;26.082;2023-06-10T05:44:21;13.93;;;6.18;;
9334;SDS011;4706;41.844;26.082;2023-06-10T05:46:46;7.82;;;5.35;;
9334;SDS011;4706;41.844;26.082;2023-06-10T05:49:12;62.53;;;10.60;;
9334;SDS011;4706;41.844;26.082;2023-06-10T05:51:37;6.35;;;5.75;;
9334;SDS011;4706;41.844;26.082;2023-06-10T05:54:03;8.20;;;5.20;;
9334;SDS011;4706;41.844;26.082;2023-06-10T05:56:29;6.43;;;5.10;;
9334;SDS011;4706;41.844;26.082;2023-06-10T05:58:54;6.38;;;5.00;;
9334;SDS011;4706;41.844;26.082;2023-06-10T06:01:21;5.55;;;5.00;;
9334;SDS011;4706;41.844;26.082;2023-06-10T06:03:46;6.20;;;5.60;;
9334;SDS011;4706;41.844;26.082;2023-06-10T06:06:12;5.85;;;5.32;;
9334;SDS011;4706;41.844;26.082;2023-06-10T06:08:37;7.35;;;6.05;;
9334;SDS011;4706;41.844;26.082;2023-06-10T06:11:03;6.15;;;5.57;;
9334;SDS011;4706;41.844;26.082;2023-06-10T06:13:29;8.10;;;7.30;;
9334;SDS011;4706;41.844;26.082;2023-06-10T06:15:54;8.35;;;5.43;;
9334;SDS011;4706;41.844;26.082;2023-06-10T06:18:20;7.65;;;6.93;;
9334;SDS011;4706;41.844;26.082;2023-06-10T06:20:45;6.88;;;5.43;;
9334;SDS011;4706;41.844;26.082;2023-06-10T06:23:11;6.55;;;5.95;;
9334;SDS011;4706;41.844;26.082;2023-06-10T06:25:36;8.63;;;5.75;;
9334;SDS011;4706;41.844;26.082;2023-06-10T06:28:05;6.72;;;5.40;;
9334;SDS011;4706;41.844;26.082;2023-06-10T06:30:32;6.47;;;5.70;;
9334;SDS011;4706;41.844;26.082;2023-06-10T06:32:58;6.72;;;5.68;;
9334;SDS011;4706;41.844;26.082;2023-06-10T06:35:23;6.00;;;5.40;;
9334;SDS011;4706;41.844;26.082;2023-06-10T06:37:48;6.82;;;5.25;;
9334;SDS011;4706;41.844;26.082;2023-06-10T06:40:14;19.33;;;9.32;;
9334;SDS011;4706;41.844;26.082;2023-06-10T06:42:40;6.60;;;5.43;;
9334;SDS011;4706;41.844;26.082;2023-06-10T06:45:05;6.68;;;5.30;;
9334;SDS011;4706;41.844;26.082;2023-06-10T06:47:31;5.25;;;4.85;;
9334;SDS011;4706;41.844;26.082;2023-06-10T06:49:57;6.85;;;5.55;;
9334;SDS011;4706;41.844;26.082;2023-06-10T06:52:22;7.75;;;5.50;;
9334;SDS011;4706;41.844;26.082;2023-06-10T06:54:48;6.82;;;5.35;;
9334;SDS011;4706;41.844;26.082;2023-06-10T06:57:13;6.20;;;5.30;;
9334;SDS011;4706;41.844;26.082;2023-06-10T06:59:39;6.70;;;5.18;;
9334;SDS011;4706;41.844;26.082;2023-06-10T07:02:05;5.63;;;5.13;;
9334;SDS011;4706;41.844;26.082;2023-06-10T07:04:31;5.78;;;5.10;;
9334;SDS011;4706;41.844;26.082;2023-06-10T07:06:56;7.13;;;5.30;;
9334;SDS011;4706;41.844;26.082;2023-06-10T07:09:22;12.82;;;6.05;;
9334;SDS011;4706;41.844;26.082;2023-06-10T07:11:47;6.63;;;5.95;;
9334;SDS011;4706;41.844;26.082;2023-06-10T07:14:13;10.05;;;5.88;;
9334;SDS011;4706;41.844;26.082;2023-06-10T07:16:38;6.20;;;5.60;;
9334;SDS011;4706;41.844;26.082;2023-06-10T07:19:04;6.38;;;5.72;;
9334;SDS011;4706;41.844;26.082;2023-06-10T07:21:30;6.80;;;6.10;;
9334;SDS011;4706;41.844;26.082;2023-06-10T07:23:57;7.82;;;5.90;;
9334;SDS011;4706;41.844;26.082;2023-06-10T07:26:22;6.13;;;5.63;;
9334;SDS011;4706;41.844;26.082;2023-06-10T07:28:48;6.25;;;5.68;;
9334;SDS011;4706;41.844;26.082;2023-06-10T07:31:13;7.47;;;5.82;;
9334;SDS011;4706;41.844;26.082;2023-06-10T07:33:39;6.43;;;5.82;;
9334;SDS011;4706;41.844;26.082;2023-06-10T07:36:05;5.70;;;5.20;;
9334;SDS011;4706;41.844;26.082;2023-06-10T07:38:31;6.85;;;5.55;;
9334;SDS011;4706;41.844;26.082;2023-06-10T07:40:57;10.70;;;5.95;;
9334;SDS011;4706;41.844;26.082;2023-06-10T07:43:22;6.03;;;5.43;;
9334;SDS011;4706;41.844;26.082;2023-06-10T07:45:48;6.10;;;5.57;;
9334;SDS011;4706;41.844;26.082;2023-06-10T07:48:14;9.23;;;5.90;;
9334;SDS011;4706;41.844;26.082;2023-06-10T07:50:40;5.68;;;5.10;;
9334;SDS011;4706;41.844;26.082;2023-06-10T07:53:06;6.10;;;5.22;;
9334;SDS011;4706;41.844;26.082;2023-06-10T07:55:31;5.80;;;5.28;;
9334;SDS011;4706;41.844;26.082;2023-06-10T07:57:56;6.63;;;5.53;;
9334;SDS011;4706;41.844;26.082;2023-06-10T08:00:22;8.13;;;5.97;;
9334;SDS011;4706;41.844;26.082;2023-06-10T08:02:48;6.47;;;5.88;;
9334;SDS011;4706;41.844;26.082;2023-06-10T08:05:13;8.65;;;6.00;;
9334;SDS011;4706;41.844;26.082;2023-06-10T08:07:39;6.05;;;5.45;;
9334;SDS011;4706;41.844;26.082;2023-06-10T08:10:06;5.60;;;5.00;;
9334;SDS011;4706;41.844;26.082;2023-06-10T08:12:32;6.22;;;4.72;;
9334;SDS011;4706;41.844;26.082;2023-06-10T08:14:58;5.85;;;5.35;;
9334;SDS011;4706;41.844;26.082;2023-06-10T08:17:24;24.40;;;7.10;;
9334;SDS011;4706;41.844;26.082;2023-06-10T08:19:49;7.40;;;5.40;;
9334;SDS011;4706;41.844;26.082;2023-06-10T08:22:15;8.13;;;5.95;;
9334;SDS011;4706;41.844;26.082;2023-06-10T08:24:41;10.60;;;5.68;;
9334;SDS011;4706;41.844;26.082;2023-06-10T08:27:06;10.65;;;6.13;;
9334;SDS011;4706;41.844;26.082;2023-06-10T08:29:32;6.93;;;5.32;;
9334;SDS011;4706;41.844;26.082;2023-06-10T08:31:57;8.57;;;5.53;;
9334;SDS011;4706;41.844;26.082;2023-06-10T08:34:23;10.23;;;5.78;;
9334;SDS011;4706;41.844;26.082;2023-06-10T08:36:49;6.88;;;6.05;;
9334;SDS011;4706;41.844;26.082;2023-06-10T08:39:20;12.43;;;8.60;;
9334;SDS011;4706;41.844;26.082;2023-06-10T08:44:37;7.78;;;5.28;;
9334;SDS011;4706;41.844;26.082;2023-06-10T08:47:09;5.13;;;4.57;;
9334;SDS011;4706;41.844;26.082;2023-06-10T08:49:45;6.93;;;4.82;;
9334;SDS011;4706;41.844;26.082;2023-06-10T08:52:16;7.78;;;5.43;;
9334;SDS011;4706;41.844;26.082;2023-06-10T08:54:56;5.47;;;4.75;;
9334;SDS011;4706;41.844;26.082;2023-06-10T08:57:24;6.88;;;4.82;;
9334;SDS011;4706;41.844;26.082;2023-06-10T08:59:50;5.25;;;4.80;;
9334;SDS011;4706;41.844;26.082;2023-06-10T09:02:21;5.97;;;4.75;;
9334;SDS011;4706;41.844;26.082;2023-06-10T09:04:47;6.05;;;4.60;;
9334;SDS011;4706;41.844;26.082;2023-06-10T09:07:17;5.03;;;4.63;;
9334;SDS011;4706;41.844;26.082;2023-06-10T09:09:43;8.00;;;4.70;;
9334;SDS011;4706;41.844;26.082;2023-06-10T09:12:09;6.43;;;4.90;;
9334;SDS011;4706;41.844;26.082;2023-06-10T09:14:36;6.25;;;5.10;;
9334;SDS011;4706;41.844;26.082;2023-06-10T09:17:02;5.20;;;4.20;;
9334;SDS011;4706;41.844;26.082;2023-06-10T09:19:28;4.97;;;4.20;;
9334;SDS011;4706;41.844;26.082;2023-06-10T09:21:55;6.63;;;4.32;;
9334;SDS011;4706;41.844;26.082;2023-06-10T09:24:22;5.43;;;4.63;;
9334;SDS011;4706;41.844;26.082;2023-06-10T09:26:48;5.28;;;4.70;;
9334;SDS011;4706;41.844;26.082;2023-06-10T09:29:16;4.78;;;4.30;;
9334;SDS011;4706;41.844;26.082;2023-06-10T09:31:42;6.80;;;4.20;;
9334;SDS011;4706;41.844;26.082;2023-06-10T09:34:10;5.70;;;4.18;;
9334;SDS011;4706;41.844;26.082;2023-06-10T09:36:40;5.88;;;5.30;;
9334;SDS011;4706;41.844;26.082;2023-06-10T09:39:13;4.50;;;4.10;;
9334;SDS011;4706;41.844;26.082;2023-06-10T09:41:44;4.45;;;4.05;;
9334;SDS011;4706;41.844;26.082;2023-06-10T09:44:11;4.75;;;3.60;;
9334;SDS011;4706;41.844;26.082;2023-06-10T09:46:41;4.55;;;4.15;;
9334;SDS011;4706;41.844;26.082;2023-06-10T09:49:07;3.97;;;3.67;;
9334;SDS011;4706;41.844;26.082;2023-06-10T09:51:33;4.57;;;3.80;;
9334;SDS011;4706;41.844;26.082;2023-06-10T09:53:59;5.68;;;4.47;;
9334;SDS011;4706;41.844;26.082;2023-06-10T09:56:35;4.25;;;3.88;;
9334;SDS011;4706;41.844;26.082;2023-06-10T09:59:01;5.28;;;4.05;;
9334;SDS011;4706;41.844;26.082;2023-06-10T10:01:27;5.10;;;3.80;;
9334;SDS011;4706;41.844;26.082;2023-06-10T10:03:53;6.82;;;4.38;;
9334;SDS011;4706;41.844;26.082;2023-06-10T10:06:19;6.60;;;4.07;;
9334;SDS011;4706;41.844;26.082;2023-06-10T10:08:49;10.43;;;9.73;;
9334;SDS011;4706;41.844;26.082;2023-06-10T10:11:19;5.07;;;3.75;;
9334;SDS011;4706;41.844;26.082;2023-06-10T10:13:49;4.13;;;3.70;;
9334;SDS011;4706;41.844;26.082;2023-06-10T10:16:20;6.88;;;4.30;;
9334;SDS011;4706;41.844;26.082;2023-06-10T10:18:52;11.40;;;5.15;;
9334;SDS011;4706;41.844;26.082;2023-06-10T10:21:26;4.65;;;3.72;;
9334;SDS011;4706;41.844;26.082;2023-06-10T10:24:02;4.65;;;3.65;;
9334;SDS011;4706;41.844;26.082;2023-06-10T10:26:49;6.55;;;4.03;;
9334;SDS011;4706;41.844;26.082;2023-06-10T10:29:31;7.20;;;3.83;;
9334;SDS011;4706;41.844;26.082;2023-06-10T10:32:01;3.97;;;3.67;;
9334;SDS011;4706;41.844;26.082;2023-06-10T10:37:12;4.72;;;4.03;;
9334;SDS011;4706;41.844;26.082;2023-06-10T10:39:37;5.60;;;3.90;;
9334;SDS011;4706;41.844;26.082;2023-06-10T10:42:04;3.83;;;3.53;;
9334;SDS011;4706;41.844;26.082;2023-06-10T10:44:34;7.22;;;4.88;;
9334;SDS011;4706;41.844;26.082;2023-06-10T10:47:02;6.05;;;4.05;;
9334;SDS011;4706;41.844;26.082;2023-06-10T10:49:29;5.00;;;4.00;;
9334;SDS011;4706;41.844;26.082;2023-06-10T10:54:35;5.50;;;5.00;;
9334;SDS011;4706;41.844;26.082;2023-06-10T10:59:58;4.03;;;3.72;;
9334;SDS011;4706;41.844;26.082;2023-06-10T11:02:33;5.82;;;3.95;;
9334;SDS011;4706;41.844;26.082;2023-06-10T11:05:01;4.63;;;4.18;;
9334;SDS011;4706;41.844;26.082;2023-06-10T11:07:31;4.20;;;3.90;;
9334;SDS011;4706;41.844;26.082;2023-06-10T11:12:23;4.38;;;3.97;;
9334;SDS011;4706;41.844;26.082;2023-06-10T11:14:55;4.50;;;4.10;;
9334;SDS011;4706;41.844;26.082;2023-06-10T11:17:21;5.63;;;3.80;;
9334;SDS011;4706;41.844;26.082;2023-06-10T11:19:47;5.15;;;4.28;;
9334;SDS011;4706;41.844;26.082;2023-06-10T11:22:16;6.40;;;5.18;;
9334;SDS011;4706;41.844;26.082;2023-06-10T11:24:46;4.60;;;4.20;;
9334;SDS011;4706;41.844;26.082;2023-06-10T11:27:16;12.88;;;5.20;;
9334;SDS011;4706;41.844;26.082;2023-06-10T11:29:57;4.68;;;4.30;;
9334;SDS011;4706;41.844;26.082;2023-06-10T11:32:26;4.90;;;4.50;;
9334;SDS011;4706;41.844;26.082;2023-06-10T11:34:55;4.10;;;3.80;;
9334;SDS011;4706;41.844;26.082;2023-06-10T11:37:21;4.53;;;4.10;;
9334;SDS011;4706;41.844;26.082;2023-06-10T11:39:47;5.35;;;3.70;;
9334;SDS011;4706;41.844;26.082;2023-06-10T11:42:16;4.57;;;4.18;;
9334;SDS011;4706;41.844;26.082;2023-06-10T11:44:49;9.35;;;7.38;;
9334;SDS011;4706;41.844;26.082;2023-06-10T11:47:16;7.25;;;4.22;;
9334;SDS011;4706;41.844;26.082;2023-06-10T11:49:42;5.97;;;4.25;;
9334;SDS011;4706;41.844;26.082;2023-06-10T11:52:08;4.93;;;4.40;;
9334;SDS011;4706;41.844;26.082;2023-06-10T11:54:34;4.40;;;4.00;;
9334;SDS011;4706;41.844;26.082;2023-06-10T11:56:59;6.22;;;4.20;;
9334;SDS011;4706;41.844;26.082;2023-06-10T11:59:29;4.10;;;3.70;;
9334;SDS011;4706;41.844;26.082;2023-06-10T12:01:55;4.20;;;3.90;;
9334;SDS011;4706;41.844;26.082;2023-06-10T12:04:21;4.85;;;3.90;;
9334;SDS011;4706;41.844;26.082;2023-06-10T12:06:51;5.43;;;4.18;;
9334;SDS011;4706;41.844;26.082;2023-06-10T12:09:25;6.55;;;4.43;;
9334;SDS011;4706;41.844;26.082;2023-06-10T12:11:54;4.40;;;3.97;;
9334;SDS011;4706;41.844;26.082;2023-06-10T12:17:16;5.18;;;3.70;;
9334;SDS011;4706;41.844;26.082;2023-06-10T12:19:42;4.70;;;4.30;;
9334;SDS011;4706;41.844;26.082;2023-06-10T12:22:07;3.78;;;3.47;;
9334;SDS011;4706;41.844;26.082;2023-06-10T12:24:42;4.65;;;4.15;;
9334;SDS011;4706;41.844;26.082;2023-06-10T12:27:12;6.05;;;4.50;;
9334;SDS011;4706;41.844;26.082;2023-06-10T12:29:38;6.53;;;4.55;;
9334;SDS011;4706;41.844;26.082;2023-06-10T12:32:03;7.43;;;4.03;;
9334;SDS011;4706;41.844;26.082;2023-06-10T12:34:35;4.18;;;3.67;;
9334;SDS011;4706;41.844;26.082;2023-06-10T12:37:05;4.15;;;3.78;;
9334;SDS011;4706;41.844;26.082;2023-06-10T12:39:38;4.45;;;4.03;;
9334;SDS011;4706;41.844;26.082;2023-06-10T12:42:05;4.30;;;3.90;;
9334;SDS011;4706;41.844;26.082;2023-06-10T12:44:35;4.28;;;3.85;;
9334;SDS011;4706;41.844;26.082;2023-06-10T12:47:07;4.40;;;3.85;;
9334;SDS011;4706;41.844;26.082;2023-06-10T12:49:39;4.40;;;4.00;;
9334;SDS011;4706;41.844;26.082;2023-06-10T12:52:05;4.00;;;3.67;;
9334;SDS011;4706;41.844;26.082;2023-06-10T12:54:31;4.47;;;3.72;;
9334;SDS011;4706;41.844;26.082;2023-06-10T12:56:57;4.25;;;3.55;;
9334;SDS011;4706;41.844;26.082;2023-06-10T12:59:23;3.97;;;3.50;;
9334;SDS011;4706;41.844;26.082;2023-06-10T13:01:52;3.65;;;3.35;;
9334;SDS011;4706;41.844;26.082;2023-06-10T13:04:19;7.10;;;6.57;;
9334;SDS011;4706;41.844;26.082;2023-06-10T13:06:46;4.90;;;4.47;;
9334;SDS011;4706;41.844;26.082;2023-06-10T13:09:13;8.45;;;4.70;;
9334;SDS011;4706;41.844;26.082;2023-06-10T13:11:39;6.13;;;5.45;;
9334;SDS011;4706;41.844;26.082;2023-06-10T13:14:05;10.02;;;5.97;;
9334;SDS011;4706;41.844;26.082;2023-06-10T13:16:32;6.35;;;4.35;;
9334;SDS011;4706;41.844;26.082;2023-06-10T13:18:57;8.07;;;4.00;;
9334;SDS011;4706;41.844;26.082;2023-06-10T13:21:23;6.75;;;4.45;;
9334;SDS011;4706;41.844;26.082;2023-06-10T13:23:49;5.28;;;4.43;;
9334;SDS011;4706;41.844;26.082;2023-06-10T13:26:15;5.53;;;4.20;;
9334;SDS011;4706;41.844;26.082;2023-06-10T13:28:43;6.20;;;3.83;;
9334;SDS011;4706;41.844;26.082;2023-06-10T13:31:09;5.82;;;4.07;;
9334;SDS011;4706;41.844;26.082;2023-06-10T13:33:35;4.78;;;3.85;;
9334;SDS011;4706;41.844;26.082;2023-06-10T13:36:04;7.65;;;3.92;;
9334;SDS011;4706;41.844;26.082;2023-06-10T13:38:29;6.70;;;4.25;;
9334;SDS011;4706;41.844;26.082;2023-06-10T13:40:55;4.53;;;3.65;;
9334;SDS011;4706;41.844;26.082;2023-06-10T13:43:21;6.90;;;3.97;;
9334;SDS011;4706;41.844;26.082;2023-06-10T13:45:46;6.20;;;4.68;;
9334;SDS011;4706;41.844;26.082;2023-06-10T13:48:12;5.72;;;4.50;;
9334;SDS011;4706;41.844;26.082;2023-06-10T13:50:38;7.95;;;4.78;;
9334;SDS011;4706;41.844;26.082;2023-06-10T13:53:03;6.05;;;4.38;;
9334;SDS011;4706;41.844;26.082;2023-06-10T13:55:29;4.85;;;3.60;;
9334;SDS011;4706;41.844;26.082;2023-06-10T13:57:54;7.00;;;4.72;;
9334;SDS011;4706;41.844;26.082;2023-06-10T14:00:20;4.72;;;4.10;;
9334;SDS011;4706;41.844;26.082;2023-06-10T14:02:45;4.88;;;4.10;;
9334;SDS011;4706;41.844;26.082;2023-06-10T14:05:11;5.05;;;3.90;;
9334;SDS011;4706;41.844;26.082;2023-06-10T14:07:37;4.55;;;4.13;;
9334;SDS011;4706;41.844;26.082;2023-06-10T14:10:03;7.28;;;4.68;;
9334;SDS011;4706;41.844;26.082;2023-06-10T14:12:29;6.88;;;4.90;;
9334;SDS011;4706;41.844;26.082;2023-06-10T14:14:54;4.65;;;4.20;;
9334;SDS011;4706;41.844;26.082;2023-06-10T14:17:20;6.95;;;5.18;;
9334;SDS011;4706;41.844;26.082;2023-06-10T14:19:45;8.40;;;5.03;;
9334;SDS011;4706;41.844;26.082;2023-06-10T14:22:11;8.05;;;4.97;;
9334;SDS011;4706;41.844;26.082;2023-06-10T14:24:36;8.70;;;4.57;;
9334;SDS011;4706;41.844;26.082;2023-06-10T14:27:02;6.40;;;4.25;;
9334;SDS011;4706;41.844;26.082;2023-06-10T14:29:28;4.93;;;4.43;;
9334;SDS011;4706;41.844;26.082;2023-06-10T14:31:56;4.97;;;4.53;;
9334;SDS011;4706;41.844;26.082;2023-06-10T14:34:22;4.85;;;4.35;;
9334;SDS011;4706;41.844;26.082;2023-06-10T14:36:53;4.82;;;4.15;;
9334;SDS011;4706;41.844;26.082;2023-06-10T14:39:19;5.85;;;4.90;;
9334;SDS011;4706;41.844;26.082;2023-06-10T14:41:44;6.82;;;5.40;;
9334;SDS011;4706;41.844;26.082;2023-06-10T14:44:10;5.90;;;4.88;;
9334;SDS011;4706;41.844;26.082;2023-06-10T14:46:35;4.80;;;4.40;;
9334;SDS011;4706;41.844;26.082;2023-06-10T14:49:01;6.07;;;4.07;;
9334;SDS011;4706;41.844;26.082;2023-06-10T14:51:27;5.95;;;4.28;;
9334;SDS011;4706;41.844;26.082;2023-06-10T14:53:53;6.20;;;4.53;;
9334;SDS011;4706;41.844;26.082;2023-06-10T14:56:18;5.82;;;5.03;;
9334;SDS011;4706;41.844;26.082;2023-06-10T14:58:44;6.95;;;5.13;;
9334;SDS011;4706;41.844;26.082;2023-06-10T15:01:09;6.90;;;4.30;;
9334;SDS011;4706;41.844;26.082;2023-06-10T15:03:35;10.32;;;5.38;;
9334;SDS011;4706;41.844;26.082;2023-06-10T15:06:01;8.70;;;4.57;;
9334;SDS011;4706;41.844;26.082;2023-06-10T15:08:26;6.25;;;5.70;;
9334;SDS011;4706;41.844;26.082;2023-06-10T15:10:53;5.32;;;4.82;;
9334;SDS011;4706;41.844;26.082;2023-06-10T15:13:19;6.28;;;4.43;;
9334;SDS011;4706;41.844;26.082;2023-06-10T15:15:45;5.63;;;4.30;;
9334;SDS011;4706;41.844;26.082;2023-06-10T15:18:11;10.48;;;4.80;;
9334;SDS011;4706;41.844;26.082;2023-06-10T15:20:36;5.53;;;4.38;;
9334;SDS011;4706;41.844;26.082;2023-06-10T15:23:03;5.63;;;4.45;;
9334;SDS011;4706;41.844;26.082;2023-06-10T15:25:28;9.18;;;6.38;;